Time;durP1;ratioP1;P1;durP2;ratioP2;P2;SDS_P1;SDS_P2;PMS_P1;PMS_P2;Temp;Humidity;BMP_temperature;BMP_pressure;BME280_temperature;BME280_humidity;BME280_pressure;Samples;Min_cycle;Max_cycle;Signal;HPM_P1;HPM_P2
2022/09/28 00:02:08;;;;;;;5.33;4.87;;;9.10;1.00;;;;;;6266958;28;20238;-54
2022/09/28 00:05:12;;;;;;;4.77;4.57;;;9.10;1.00;;;;;;6284236;28;20643;-54
2022/09/28 00:08:15;;;;;;;4.90;4.60;;;9.10;1.00;;;;;;6260250;28;20333;-53
2022/09/28 00:11:20;;;;;;;4.63;4.43;;;9.20;1.00;;;;;;6259320;28;20245;-55
2022/09/28 00:14:24;;;;;;;4.90;4.43;;;9.10;1.00;;;;;;6261815;28;20246;-54
2022/09/28 00:17:26;;;;;;;4.73;4.57;;;9.00;1.00;;;;;;6278455;28;20295;-54
2022/09/28 00:20:31;;;;;;;5.67;5.10;;;9.10;1.00;;;;;;6283351;28;20320;-54
2022/09/28 00:24:11;;;;;;;5.20;5.00;;;9.10;1.00;;;;;;6279058;28;20253;-55
2022/09/28 00:27:01;;;;;;;4.63;4.53;;;9.10;1.00;;;;;;6258742;28;20234;-56
2022/09/28 00:30:05;;;;;;;4.83;4.63;;;9.00;1.00;;;;;;6259384;28;20245;-55
2022/09/28 00:33:08;;;;;;;5.23;5.03;;;9.10;1.00;;;;;;6266137;28;20617;-53
2022/09/28 00:36:12;;;;;;;5.20;4.93;;;9.00;1.00;;;;;;6289522;28;20245;-54
2022/09/28 00:39:16;;;;;;;5.57;5.27;;;9.00;1.00;;;;;;6283896;28;20237;-54
2022/09/28 00:42:21;;;;;;;5.63;5.33;;;9.00;1.00;;;;;;6282877;28;20322;-54
2022/09/28 00:45:26;;;;;;;5.30;5.00;;;9.00;1.00;;;;;;6266612;28;20243;-53
2022/09/28 00:48:33;;;;;;;5.90;5.50;;;9.00;1.00;;;;;;6258784;28;20225;-59
2022/09/28 00:51:40;;;;;;;5.70;5.30;;;9.10;1.00;;;;;;6276965;28;20233;-53
2022/09/28 00:54:47;;;;;;;5.50;5.03;;;9.00;1.00;;;;;;6275502;28;20237;-54
2022/09/28 00:57:54;;;;;;;5.07;4.90;;;9.10;1.00;;;;;;6277969;28;20312;-55
2022/09/28 01:00:58;;;;;;;4.60;4.50;;;9.10;1.00;;;;;;6282257;28;20241;-53
2022/09/28 01:04:03;;;;;;;4.43;4.33;;;9.20;1.00;;;;;;6283677;28;20736;-54
2022/09/28 01:07:08;;;;;;;4.43;4.33;;;9.20;1.00;;;;;;6262677;28;20253;-54
2022/09/28 01:10:12;;;;;;;4.50;4.30;;;9.20;1.00;;;;;;6277611;28;20364;-54
2022/09/28 01:13:17;;;;;;;4.60;4.50;;;9.20;1.00;;;;;;6282503;28;20252;-54
2022/09/28 01:16:30;;;;;;;5.00;4.70;;;9.10;1.00;;;;;;6279634;28;20230;-55
2022/09/28 01:20:01;;;;;;;4.40;4.27;;;9.10;1.00;;;;;;6284332;28;20283;-53
2022/09/28 01:23:35;;;;;;;4.00;3.90;;;9.10;1.00;;;;;;6279574;28;20333;-55
2022/09/28 01:26:55;;;;;;;4.80;4.70;;;9.10;1.00;;;;;;6266471;28;20393;-54
2022/09/28 01:30:04;;;;;;;4.30;4.00;;;9.20;1.00;;;;;;6264526;28;20226;-53
2022/09/28 01:33:11;;;;;;;4.13;4.03;;;9.20;1.00;;;;;;6266522;28;20248;-54
2022/09/28 01:36:21;;;;;;;4.00;4.00;;;9.20;1.00;;;;;;6298535;28;20228;-53
2022/09/28 01:39:30;;;;;;;4.33;4.13;;;9.20;1.00;;;;;;6307842;28;20237;-54
2022/09/28 01:42:36;;;;;;;4.27;4.17;;;9.20;1.00;;;;;;6271990;28;20229;-54
2022/09/28 01:45:44;;;;;;;4.50;4.40;;;9.20;1.00;;;;;;6278260;28;20233;-54
2022/09/28 01:48:53;;;;;;;4.13;3.93;;;9.20;1.00;;;;;;6279515;28;20241;-54
2022/09/28 01:52:03;;;;;;;4.43;4.33;;;9.30;1.00;;;;;;6277411;28;20725;-53
2022/09/28 01:55:11;;;;;;;4.60;4.40;;;9.30;1.00;;;;;;6282351;28;20271;-54
2022/09/28 01:58:20;;;;;;;4.00;3.90;;;9.20;1.00;;;;;;6282661;28;20234;-54
2022/09/28 02:01:29;;;;;;;3.67;3.60;;;9.20;1.00;;;;;;6273976;28;20242;-54
2022/09/28 02:04:35;;;;;;;4.47;4.37;;;9.20;1.00;;;;;;6284320;28;20740;-54
2022/09/28 02:07:44;;;;;;;3.90;3.90;;;9.20;1.00;;;;;;6296152;28;20249;-55
2022/09/28 02:10:52;;;;;;;4.47;4.37;;;9.20;1.00;;;;;;6257601;28;20645;-53
2022/09/28 02:14:01;;;;;;;4.53;4.43;;;9.20;1.00;;;;;;6247103;28;20401;-55
2022/09/28 02:17:04;;;;;;;5.00;4.80;;;9.20;1.00;;;;;;6275920;28;20735;-54
2022/09/28 02:20:08;;;;;;;5.07;4.87;;;9.20;1.00;;;;;;6268152;28;20656;-54
2022/09/28 02:23:11;;;;;;;5.50;5.20;;;9.20;1.00;;;;;;6277890;28;20734;-54
2022/09/28 02:26:18;;;;;;;5.67;5.40;;;9.20;1.00;;;;;;6272489;28;20237;-54
2022/09/28 02:29:24;;;;;;;5.53;5.30;;;9.20;1.00;;;;;;6262627;28;20311;-54
2022/09/28 02:32:33;;;;;;;5.80;5.60;;;9.20;1.00;;;;;;6281360;28;20358;-54
2022/09/28 02:35:38;;;;;;;6.17;5.87;;;9.10;1.00;;;;;;6277190;28;20242;-54
2022/09/28 02:38:41;;;;;;;5.83;5.63;;;9.10;1.00;;;;;;6261757;28;20229;-54
2022/09/28 02:41:55;;;;;;;6.40;6.10;;;9.10;1.00;;;;;;6285371;28;20266;-54
2022/09/28 02:45:11;;;;;;;6.30;6.00;;;9.10;1.00;;;;;;6285409;28;20229;-54
2022/09/28 02:48:25;;;;;;;6.33;6.00;;;9.10;1.00;;;;;;6283343;28;20398;-54
2022/09/28 02:51:54;;;;;;;6.00;5.60;;;9.10;1.00;;;;;;6286769;28;20441;-54
2022/09/28 02:55:17;;;;;;;6.33;5.80;;;9.10;1.00;;;;;;6285800;28;20222;-60
2022/09/28 02:58:31;;;;;;;6.57;6.07;;;9.10;1.00;;;;;;6270175;28;20709;-54
2022/09/28 03:01:45;;;;;;;7.23;6.83;;;9.10;1.00;;;;;;6286153;28;20233;-54
2022/09/28 03:05:01;;;;;;;6.90;6.40;;;9.10;1.00;;;;;;6292012;28;20240;-54
2022/09/28 03:08:07;;;;;;;7.73;7.00;;;9.30;1.00;;;;;;6270585;28;20606;-54
2022/09/28 03:11:17;;;;;;;6.97;6.50;;;9.00;1.00;;;;;;6260689;28;20241;-54
2022/09/28 03:14:21;;;;;;;6.93;6.53;;;9.00;1.00;;;;;;6278494;28;20764;-55
2022/09/28 03:17:25;;;;;;;6.97;6.67;;;9.00;1.00;;;;;;6280590;28;20237;-54
2022/09/28 03:20:30;;;;;;;7.17;6.77;;;8.90;1.00;;;;;;6282154;28;20229;-54
2022/09/28 03:23:33;;;;;;;6.53;6.23;;;8.90;1.00;;;;;;6285100;28;20625;-53
2022/09/28 03:26:36;;;;;;;7.43;6.93;;;8.80;1.00;;;;;;6284357;28;20245;-55
2022/09/28 03:29:39;;;;;;;7.30;6.90;;;8.80;1.00;;;;;;6279334;28;20237;-54
2022/09/28 03:32:44;;;;;;;7.30;6.80;;;8.70;1.00;;;;;;6264959;28;20245;-54
2022/09/28 03:35:47;;;;;;;8.47;7.23;;;8.70;1.00;;;;;;6280540;28;20260;-55
2022/09/28 03:38:53;;;;;;;7.30;6.80;;;8.70;1.00;;;;;;6281357;28;20237;-54
2022/09/28 03:41:56;;;;;;;7.13;6.60;;;8.60;1.00;;;;;;6277176;28;20263;-55
2022/09/28 03:44:59;;;;;;;6.50;6.20;;;8.60;1.00;;;;;;6300099;28;20704;-55
2022/09/28 03:48:03;;;;;;;7.37;6.90;;;8.50;1.00;;;;;;6287270;28;20252;-57
2022/09/28 03:51:09;;;;;;;7.00;6.57;;;8.70;1.00;;;;;;6282824;28;20613;-57
2022/09/28 03:54:12;;;;;;;9.03;8.43;;;8.50;1.00;;;;;;6296676;28;20248;-55
2022/09/28 03:57:15;;;;;;;8.93;8.23;;;8.50;1.00;;;;;;6281037;28;20721;-56
2022/09/28 04:00:19;;;;;;;8.00;7.50;;;8.40;1.00;;;;;;6286714;28;20710;-54
2022/09/28 04:03:23;;;;;;;8.30;7.60;;;8.40;1.00;;;;;;6290389;28;20824;-55
2022/09/28 04:06:26;;;;;;;7.67;7.17;;;8.40;1.00;;;;;;6281496;28;20240;-54
2022/09/28 04:09:29;;;;;;;8.60;7.83;;;8.30;1.00;;;;;;6289545;28;20234;-54
2022/09/28 04:12:32;;;;;;;8.63;7.93;;;8.30;1.00;;;;;;6285116;28;20237;-54
2022/09/28 04:15:36;;;;;;;7.80;7.20;;;8.30;1.00;;;;;;6289171;28;20888;-55
2022/09/28 04:18:41;;;;;;;7.90;7.40;;;8.30;1.00;;;;;;6286023;28;20326;-55
2022/09/28 04:21:44;;;;;;;9.20;8.33;;;8.30;1.00;;;;;;6274611;28;20249;-54
2022/09/28 04:24:46;;;;;;;9.20;8.40;;;8.20;1.00;;;;;;6285793;28;20237;-54
2022/09/28 04:31:11;;;;;;;8.33;7.63;;;8.20;1.00;;;;;;6285936;28;20650;-54
2022/09/28 04:34:17;;;;;;;8.40;7.80;;;8.10;1.00;;;;;;6277175;28;20324;-54
2022/09/28 04:37:20;;;;;;;7.70;7.03;;;8.20;1.00;;;;;;6285085;28;20247;-54
2022/09/28 04:40:23;;;;;;;9.30;8.67;;;8.20;1.00;;;;;;6279525;28;20229;-54
2022/09/28 04:43:27;;;;;;;8.33;7.70;;;8.20;1.00;;;;;;6284272;28;20241;-54
2022/09/28 04:46:29;;;;;;;8.90;8.30;;;8.40;1.00;;;;;;6282642;28;20226;-52
2022/09/28 04:49:35;;;;;;;8.63;7.97;;;8.30;1.00;;;;;;6286761;28;20226;-54
2022/09/28 04:52:38;;;;;;;9.30;8.47;;;8.30;1.00;;;;;;6282403;28;20400;-54
2022/09/28 04:55:42;;;;;;;9.13;8.23;;;8.30;1.00;;;;;;6277836;28;20243;-53
2022/09/28 04:58:45;;;;;;;9.13;8.23;;;8.50;1.00;;;;;;6286471;28;20225;-54
2022/09/28 05:01:54;;;;;;;9.23;8.30;;;8.40;1.00;;;;;;6284412;28;20229;-54
2022/09/28 05:04:59;;;;;;;8.10;7.53;;;8.40;1.00;;;;;;6286013;28;20244;-54
2022/09/28 05:08:02;;;;;;;8.23;7.70;;;8.50;1.00;;;;;;6286412;28;20244;-55
2022/09/28 05:11:07;;;;;;;8.93;8.13;;;8.50;1.00;;;;;;6286089;28;20757;-55
2022/09/28 05:14:11;;;;;;;9.30;8.60;;;8.50;1.00;;;;;;6298041;28;20236;-52
2022/09/28 05:17:14;;;;;;;9.20;8.47;;;8.60;1.00;;;;;;6294492;28;20233;-54
2022/09/28 05:20:18;;;;;;;8.50;7.60;;;8.50;1.00;;;;;;6281633;28;20477;-53
2022/09/28 05:23:21;;;;;;;8.33;7.73;;;8.50;1.00;;;;;;6282474;28;20240;-53
2022/09/28 05:26:24;;;;;;;8.30;7.70;;;8.60;1.00;;;;;;6285324;28;20229;-52
2022/09/28 05:29:27;;;;;;;8.57;7.97;;;8.60;1.00;;;;;;6279805;28;20240;-55
2022/09/28 05:32:34;;;;;;;7.87;7.47;;;8.60;1.00;;;;;;6280381;28;20248;-53
2022/09/28 05:35:38;;;;;;;7.63;7.03;;;8.60;1.00;;;;;;6282734;28;20739;-54
2022/09/28 05:38:41;;;;;;;9.00;7.93;;;8.60;1.00;;;;;;6287827;28;20759;-55
2022/09/28 05:41:44;;;;;;;9.80;7.73;;;8.60;1.00;;;;;;6285435;28;20240;-54
2022/09/28 05:44:47;;;;;;;9.40;8.50;;;8.60;1.00;;;;;;6256674;28;20247;-54
2022/09/28 05:47:49;;;;;;;8.97;8.03;;;8.60;1.00;;;;;;6275183;28;20740;-53
2022/09/28 05:50:54;;;;;;;9.33;8.43;;;8.70;1.00;;;;;;6260977;28;20242;-54
2022/09/28 05:53:57;;;;;;;9.27;8.40;;;8.60;1.00;;;;;;6263931;28;20225;-54
2022/09/28 05:57:06;;;;;;;8.80;8.10;;;8.70;1.00;;;;;;6279090;28;20229;-54
2022/09/28 06:00:10;;;;;;;8.90;8.30;;;8.70;1.00;;;;;;6276994;28;20336;-55
2022/09/28 06:03:14;;;;;;;9.30;8.40;;;8.70;1.00;;;;;;6276313;28;20245;-55
2022/09/28 06:06:18;;;;;;;9.07;8.27;;;8.90;1.00;;;;;;6283917;28;20622;-55
2022/09/28 06:09:22;;;;;;;8.77;8.17;;;8.90;1.00;;;;;;6273975;28;20841;-54
2022/09/28 06:12:27;;;;;;;8.53;7.83;;;8.90;1.00;;;;;;6292745;28;20259;-54
2022/09/28 06:15:33;;;;;;;9.00;8.10;;;9.00;1.00;;;;;;6295343;28;20229;-54
2022/09/28 06:18:36;;;;;;;8.00;7.50;;;9.10;1.00;;;;;;6296808;28;20709;-53
2022/09/28 06:21:40;;;;;;;8.80;8.17;;;9.20;1.00;;;;;;6284259;28;20237;-54
2022/09/28 06:24:43;;;;;;;8.50;7.73;;;9.30;1.00;;;;;;6289729;28;20407;-58
2022/09/28 06:27:53;;;;;;;9.00;8.10;;;9.30;1.00;;;;;;6293801;28;20233;-55
2022/09/28 06:30:59;;;;;;;7.70;7.20;;;9.40;1.00;;;;;;6285020;28;20237;-55
2022/09/28 06:34:02;;;;;;;8.43;7.83;;;9.60;1.00;;;;;;6285128;28;20229;-60
2022/09/28 06:37:06;;;;;;;8.67;8.17;;;9.60;1.00;;;;;;6297393;28;20240;-53
2022/09/28 06:40:09;;;;;;;8.53;7.97;;;9.70;1.00;;;;;;6295105;28;20751;-54
2022/09/28 06:43:14;;;;;;;10.03;9.23;;;9.70;1.00;;;;;;6294654;28;20240;-53
2022/09/28 06:46:17;;;;;;;9.30;8.40;;;9.70;1.00;;;;;;6291524;28;20241;-54
2022/09/28 06:49:21;;;;;;;8.80;8.10;;;9.80;1.00;;;;;;6292290;28;20538;-55
2022/09/28 06:52:25;;;;;;;8.67;7.87;;;9.80;1.00;;;;;;6280438;28;20253;-55
2022/09/28 06:55:28;;;;;;;9.03;8.30;;;9.80;1.00;;;;;;6286019;28;20230;-53
2022/09/28 06:58:31;;;;;;;9.33;8.63;;;9.90;1.00;;;;;;6292876;28;20230;-54
2022/09/28 07:01:34;;;;;;;9.23;8.43;;;9.90;1.00;;;;;;6290435;28;20414;-54
2022/09/28 07:04:39;;;;;;;9.53;8.83;;;10.00;1.00;;;;;;6292948;28;20484;-54
2022/09/28 07:07:44;;;;;;;9.43;8.63;;;10.00;1.00;;;;;;6295248;28;20241;-55
2022/09/28 07:10:49;;;;;;;9.40;8.67;;;10.00;1.00;;;;;;6279685;28;20241;-53
2022/09/28 07:13:51;;;;;;;10.13;9.27;;;10.10;1.00;;;;;;6282654;28;20674;-55
2022/09/28 07:16:55;;;;;;;9.57;8.87;;;10.10;1.00;;;;;;6289066;28;20233;-54
2022/09/28 07:20:16;;;;;;;9.73;8.97;;;10.20;1.00;;;;;;6292906;28;20244;-52
2022/09/28 07:23:25;;;;;;;9.70;8.90;;;10.30;1.00;;;;;;6293392;28;20286;-53
2022/09/28 07:26:27;;;;;;;9.17;8.40;;;10.40;1.00;;;;;;6287720;28;20244;-53
2022/09/28 07:29:30;;;;;;;11.17;10.07;;;10.40;1.00;;;;;;6289801;28;20888;-54
2022/09/28 07:32:36;;;;;;;9.67;8.83;;;10.50;1.00;;;;;;6289042;28;20237;-53
2022/09/28 07:35:40;;;;;;;10.73;9.73;;;10.60;1.00;;;;;;6277325;28;20875;-55
2022/09/28 07:38:44;;;;;;;10.50;9.30;;;10.70;1.00;;;;;;6293722;28;20249;-55
2022/09/28 07:41:46;;;;;;;10.57;9.67;;;10.80;1.00;;;;;;6289204;28;20244;-53
2022/09/28 07:44:49;;;;;;;10.03;9.13;;;10.90;1.00;;;;;;6288635;28;20233;-59
2022/09/28 07:47:55;;;;;;;9.43;8.73;;;10.90;1.00;;;;;;6299395;28;20236;-52
2022/09/28 07:50:58;;;;;;;10.27;9.40;;;10.90;1.00;;;;;;6294907;28;20260;-54
2022/09/28 07:54:04;;;;;;;10.23;9.43;;;11.00;1.00;;;;;;6281571;28;20229;-53
2022/09/28 07:57:07;;;;;;;10.70;9.70;;;11.00;1.00;;;;;;6294041;28;20228;-54
2022/09/28 08:00:11;;;;;;;10.57;9.57;;;11.00;1.00;;;;;;6280541;28;20237;-52
2022/09/28 08:03:14;;;;;;;11.10;10.17;;;11.00;1.00;;;;;;6291454;28;20240;-53
2022/09/28 08:06:17;;;;;;;10.90;9.90;;;11.00;1.00;;;;;;6288786;28;20244;-52
2022/09/28 08:09:22;;;;;;;9.70;9.00;;;11.00;1.00;;;;;;6286035;28;20241;-52
2022/09/28 08:12:24;;;;;;;15.80;13.37;;;11.00;1.00;;;;;;6287815;28;20244;-54
2022/09/28 08:15:28;;;;;;;10.93;9.83;;;11.00;1.00;;;;;;6285921;28;20237;-54
2022/09/28 08:18:31;;;;;;;10.63;9.63;;;11.10;1.00;;;;;;6291123;28;20232;-56
2022/09/28 08:21:45;;;;;;;10.73;9.77;;;11.20;1.00;;;;;;6288047;28;20229;-55
2022/09/28 08:24:49;;;;;;;10.63;9.80;;;11.30;1.00;;;;;;6294157;28;20640;-53
2022/09/28 08:27:55;;;;;;;9.57;8.97;;;11.50;1.00;;;;;;6282704;28;20240;-54
2022/09/28 08:31:00;;;;;;;12.13;11.03;;;11.60;1.00;;;;;;6279841;28;20230;-53
2022/09/28 08:34:03;;;;;;;10.20;9.30;;;11.70;1.00;;;;;;6274787;28;20717;-54
2022/09/28 08:37:08;;;;;;;10.10;9.30;;;11.80;1.00;;;;;;6280822;28;20862;-53
2022/09/28 08:40:18;;;;;;;9.63;8.90;;;11.80;1.00;;;;;;6285066;28;20562;-53
2022/09/28 08:43:39;;;;;;;10.10;9.13;;;12.00;1.00;;;;;;6281713;28;20238;-53
2022/09/28 08:46:46;;;;;;;10.77;9.87;;;12.10;1.00;;;;;;6288340;28;20244;-53
2022/09/28 08:49:49;;;;;;;9.53;8.70;;;12.10;1.00;;;;;;6289525;28;20237;-53
2022/09/28 08:52:58;;;;;;;10.27;9.50;;;11.80;1.00;;;;;;6282482;28;20464;-55
2022/09/28 08:56:07;;;;;;;9.50;8.77;;;11.90;1.00;;;;;;6283289;28;20229;-53
2022/09/28 08:59:14;;;;;;;8.53;8.03;;;12.00;1.00;;;;;;6283212;28;20645;-53
2022/09/28 09:02:22;;;;;;;7.80;7.30;;;12.20;1.00;;;;;;6284814;28;20234;-53
2022/09/28 09:05:44;;;;;;;8.00;7.50;;;12.30;1.00;;;;;;6269391;28;20500;-54
2022/09/28 09:08:57;;;;;;;7.97;7.33;;;12.50;1.00;;;;;;6284906;28;20252;-52
2022/09/28 09:12:08;;;;;;;8.10;7.40;;;12.50;1.00;;;;;;6290273;28;20304;-54
2022/09/28 09:15:32;;;;;;;6.80;6.33;;;12.10;1.00;;;;;;6295278;28;20245;-54
2022/09/28 09:18:38;;;;;;;6.97;6.47;;;12.10;1.00;;;;;;6289378;28;20225;-54
2022/09/28 09:21:46;;;;;;;5.97;5.73;;;12.00;1.00;;;;;;6290213;28;20256;-54
2022/09/28 09:24:50;;;;;;;5.70;5.50;;;12.20;1.00;;;;;;6287321;28;20643;-54
2022/09/28 09:28:08;;;;;;;5.50;5.33;;;12.20;1.00;;;;;;6291039;28;20229;-52
2022/09/28 09:31:26;;;;;;;6.13;5.43;;;12.40;1.00;;;;;;6301018;28;20252;-54
2022/09/28 09:34:55;;;;;;;5.77;5.57;;;12.70;1.00;;;;;;6278034;28;20726;-54
2022/09/28 09:38:18;;;;;;;7.40;5.67;;;12.90;1.00;;;;;;6285335;28;20227;-55
2022/09/28 09:41:31;;;;;;;6.03;5.77;;;13.00;1.00;;;;;;6280296;28;20233;-52
2022/09/28 09:44:55;;;;;;;5.40;5.20;;;13.10;1.00;;;;;;6283648;28;20367;-54
2022/09/28 09:48:02;;;;;;;5.23;4.90;;;13.40;1.00;;;;;;6291811;28;20236;-53
2022/09/28 09:51:17;;;;;;;5.40;5.07;;;13.40;1.00;;;;;;6285637;28;20459;-54
2022/09/28 09:54:27;;;;;;;4.90;4.70;;;13.50;1.00;;;;;;6291457;28;20229;-54
2022/09/28 09:57:34;;;;;;;5.43;5.20;;;13.70;1.00;;;;;;6287005;28;20985;-54
2022/09/28 10:00:40;;;;;;;4.33;4.23;;;13.70;1.00;;;;;;6276962;28;20248;-53
2022/09/28 10:03:48;;;;;;;3.97;3.80;;;14.00;1.00;;;;;;6285548;28;20604;-54
2022/09/28 10:06:56;;;;;;;3.40;3.27;;;13.90;1.00;;;;;;6290536;28;20714;-55
2022/09/28 10:10:01;;;;;;;3.60;3.40;;;13.90;1.00;;;;;;6286376;28;20230;-52
2022/09/28 10:13:04;;;;;;;3.97;3.77;;;13.80;1.00;;;;;;6294671;28;20244;-54
2022/09/28 10:16:09;;;;;;;3.63;3.40;;;13.70;1.00;;;;;;6288949;28;20583;-54
2022/09/28 10:19:12;;;;;;;3.33;3.03;;;13.60;1.00;;;;;;6284652;28;20419;-54
2022/09/28 10:22:19;;;;;;;2.97;2.87;;;13.60;1.00;;;;;;6283880;28;20597;-53
2022/09/28 10:25:23;;;;;;;4.53;3.10;;;13.60;1.00;;;;;;6284762;28;20225;-54
2022/09/28 10:28:32;;;;;;;3.43;3.13;;;13.40;1.00;;;;;;6290034;28;20241;-53
2022/09/28 10:31:40;;;;;;;3.60;3.40;;;13.20;1.00;;;;;;6295403;28;20713;-54
2022/09/28 10:34:43;;;;;;;3.10;2.90;;;13.10;1.00;;;;;;6271145;28;20241;-54
2022/09/28 10:37:56;;;;;;;3.33;3.03;;;13.10;1.00;;;;;;6278951;28;20249;-54
2022/09/28 10:41:00;;;;;;;3.20;3.00;;;13.00;1.00;;;;;;6283859;28;20700;-54
2022/09/28 10:44:09;;;;;;;3.03;2.83;;;12.80;1.00;;;;;;6282245;28;20233;-55
2022/09/28 10:47:17;;;;;;;3.03;2.83;;;12.70;1.00;;;;;;6287373;28;20253;-55
2022/09/28 10:50:22;;;;;;;3.17;3.07;;;12.80;1.00;;;;;;6298009;28;20235;-54
2022/09/28 10:53:25;;;;;;;2.43;2.40;;;12.90;1.00;;;;;;6281581;28;20378;-53
2022/09/28 10:56:35;;;;;;;3.27;2.97;;;13.30;1.00;;;;;;6299920;28;20269;-53
2022/09/28 10:59:40;;;;;;;2.63;2.53;;;13.40;1.00;;;;;;6291264;28;20729;-54
2022/09/28 11:02:44;;;;;;;3.07;2.50;;;13.50;1.00;;;;;;6289542;28;20473;-53
2022/09/28 11:05:56;;;;;;;3.10;3.00;;;13.60;1.00;;;;;;6289321;28;20233;-54
2022/09/28 11:09:02;;;;;;;2.87;2.67;;;13.60;1.00;;;;;;6291498;28;20247;-52
2022/09/28 11:12:06;;;;;;;3.70;3.40;;;13.60;1.00;;;;;;6287756;28;20426;-54
2022/09/28 11:15:18;;;;;;;4.13;3.93;;;13.70;1.00;;;;;;6288607;28;20236;-54
2022/09/28 11:18:28;;;;;;;3.83;3.73;;;13.70;1.00;;;;;;6287097;28;20232;-52
2022/09/28 11:21:41;;;;;;;4.03;3.83;;;13.50;1.00;;;;;;6286720;28;20245;-53
2022/09/28 11:24:44;;;;;;;4.80;4.37;;;13.20;1.00;;;;;;6291755;28;20232;-52
2022/09/28 11:27:57;;;;;;;4.03;3.67;;;13.10;1.00;;;;;;6289975;28;20241;-53
2022/09/28 11:31:02;;;;;;;3.50;3.30;;;13.00;1.00;;;;;;6285713;28;20581;-55
2022/09/28 11:34:16;;;;;;;3.47;3.27;;;12.70;1.00;;;;;;6294623;28;20328;-55
2022/09/28 11:37:44;;;;;;;3.63;3.13;;;12.70;1.00;;;;;;6281542;28;20238;-53
2022/09/28 11:40:56;;;;;;;3.70;3.50;;;12.60;1.00;;;;;;6279230;28;20225;-54
2022/09/28 11:44:21;;;;;;;3.73;3.63;;;12.50;1.00;;;;;;6284663;28;20256;-52
2022/09/28 11:47:44;;;;;;;4.27;4.07;;;12.50;1.00;;;;;;6287476;28;20264;-53
2022/09/28 11:50:53;;;;;;;4.00;3.90;;;12.30;1.00;;;;;;6291367;28;20229;-52
2022/09/28 11:54:02;;;;;;;3.80;3.70;;;12.30;1.00;;;;;;6296295;28;20805;-54
2022/09/28 11:57:11;;;;;;;3.23;3.13;;;12.40;1.00;;;;;;6290185;28;20240;-52
2022/09/28 12:00:17;;;;;;;3.00;2.90;;;12.30;1.00;;;;;;6288216;28;20232;-53
2022/09/28 12:03:24;;;;;;;3.60;2.97;;;12.30;1.00;;;;;;6269847;28;20275;-53
2022/09/28 12:06:34;;;;;;;2.87;2.77;;;12.20;1.00;;;;;;6268620;28;20230;-54
2022/09/28 12:09:45;;;;;;;2.80;2.77;;;12.10;1.00;;;;;;6268973;28;20237;-53
2022/09/28 12:12:55;;;;;;;3.00;2.90;;;12.00;1.00;;;;;;6265039;28;20717;-54
2022/09/28 12:16:01;;;;;;;3.17;3.07;;;12.00;1.00;;;;;;6256449;28;20234;-54
2022/09/28 12:19:30;;;;;;;3.07;2.97;;;12.10;1.00;;;;;;6275985;28;20264;-54
2022/09/28 12:22:40;;;;;;;2.87;2.77;;;11.90;1.00;;;;;;6293015;28;20241;-53
2022/09/28 12:25:48;;;;;;;2.90;2.80;;;12.00;1.00;;;;;;6289266;28;20230;-54
2022/09/28 12:28:55;;;;;;;2.73;2.73;;;12.00;1.00;;;;;;6288818;28;20323;-53
2022/09/28 12:32:07;;;;;;;2.43;2.33;;;12.00;1.00;;;;;;6281131;28;20236;-53
2022/09/28 12:35:14;;;;;;;3.33;3.20;;;12.20;1.00;;;;;;6270671;28;20225;-53
2022/09/28 12:38:43;;;;;;;2.97;2.97;;;12.30;1.00;;;;;;6264572;28;20229;-54
2022/09/28 12:42:15;;;;;;;2.30;2.30;;;12.40;1.00;;;;;;6256305;28;20253;-53
2022/09/28 12:45:43;;;;;;;2.57;2.50;;;12.30;1.00;;;;;;6264924;28;20672;-53
2022/09/28 12:49:33;;;;;;;2.37;2.37;;;12.40;1.00;;;;;;6260397;28;20253;-54
2022/09/28 12:53:08;;;;;;;2.33;2.23;;;12.60;1.00;;;;;;6283361;28;20229;-53
2022/09/28 12:56:23;;;;;;;2.40;2.40;;;12.80;1.00;;;;;;6284421;28;20234;-54
2022/09/28 12:59:31;;;;;;;2.23;2.23;;;12.80;1.00;;;;;;6285584;28;20255;-55
2022/09/28 13:03:02;;;;;;;2.53;2.53;;;12.80;1.00;;;;;;6280991;28;20480;-54
2022/09/28 13:06:22;;;;;;;2.10;2.00;;;12.90;1.00;;;;;;6283835;28;20228;-53
2022/09/28 13:09:27;;;;;;;2.20;2.20;;;13.00;1.00;;;;;;6290291;28;20237;-52
2022/09/28 13:12:44;;;;;;;2.20;2.20;;;12.90;1.00;;;;;;6281726;28;20552;-54
2022/09/28 13:15:53;;;;;;;2.10;2.10;;;12.90;1.00;;;;;;6270502;28;20233;-53
2022/09/28 13:19:03;;;;;;;2.37;2.37;;;12.80;1.00;;;;;;6284969;28;20381;-54
2022/09/28 13:22:20;;;;;;;2.20;2.20;;;12.70;1.00;;;;;;6282854;28;20245;-52
2022/09/28 13:25:27;;;;;;;2.07;2.03;;;12.60;1.00;;;;;;6281432;28;20225;-52
2022/09/28 13:28:33;;;;;;;2.33;2.23;;;12.70;1.00;;;;;;6282291;28;20233;-52
2022/09/28 13:31:39;;;;;;;2.30;2.10;;;12.80;1.00;;;;;;6284348;28;20253;-54
2022/09/28 13:34:47;;;;;;;2.20;2.20;;;12.90;1.00;;;;;;6285614;28;20237;-54
2022/09/28 13:38:30;;;;;;;2.13;2.03;;;12.90;1.00;;;;;;6275250;28;20819;-54
2022/09/28 13:41:35;;;;;;;2.50;2.40;;;13.10;1.00;;;;;;6281478;28;20230;-54
2022/09/28 13:45:01;;;;;;;4.13;3.93;;;13.10;1.00;;;;;;6299607;28;20387;-53
2022/09/28 13:48:15;;;;;;;2.60;2.23;;;13.00;1.00;;;;;;6246169;28;20241;-54
2022/09/28 13:51:45;;;;;;;2.20;2.20;;;13.00;1.00;;;;;;6284867;28;20271;-53
2022/09/28 13:55:00;;;;;;;2.30;2.30;;;13.20;1.00;;;;;;6286242;28;20221;-54
2022/09/28 13:58:13;;;;;;;2.20;2.20;;;13.20;1.00;;;;;;6253420;28;20267;-54
2022/09/28 14:01:22;;;;;;;2.60;2.60;;;13.30;1.00;;;;;;6287884;28;20248;-54
2022/09/28 14:04:45;;;;;;;2.77;2.67;;;13.20;1.00;;;;;;6282202;28;20244;-54
2022/09/28 14:07:58;;;;;;;2.77;2.67;;;13.20;1.00;;;;;;6289410;28;20496;-53
2022/09/28 14:11:25;;;;;;;2.73;2.70;;;12.90;1.00;;;;;;6287815;28;20464;-52
2022/09/28 14:14:49;;;;;;;2.40;2.40;;;12.90;1.00;;;;;;6286492;28;20795;-55
2022/09/28 14:18:00;;;;;;;2.60;2.60;;;13.10;1.00;;;;;;6288649;28;20225;-53
2022/09/28 14:21:27;;;;;;;2.37;2.37;;;13.10;1.00;;;;;;6282381;28;20242;-53
2022/09/28 14:24:41;;;;;;;2.00;2.00;;;13.20;1.00;;;;;;6275714;28;20226;-53
2022/09/28 14:28:03;;;;;;;3.07;2.80;;;13.10;1.00;;;;;;6281820;28;22478;-52
2022/09/28 14:31:09;;;;;;;2.90;2.80;;;13.10;1.00;;;;;;6291379;28;20240;-53
2022/09/28 14:34:30;;;;;;;2.70;2.70;;;13.10;1.00;;;;;;6287620;28;20237;-53
2022/09/28 14:41:11;;;;;;;2.60;2.40;;;13.20;1.00;;;;;;6283433;28;20257;-52
2022/09/28 14:44:15;;;;;;;2.50;2.50;;;13.10;1.00;;;;;;6293044;28;20710;-52
2022/09/28 14:47:33;;;;;;;2.60;2.50;;;13.10;1.00;;;;;;6291576;28;20237;-53
2022/09/28 14:50:38;;;;;;;3.10;3.00;;;13.00;1.00;;;;;;6289877;28;20236;-53
2022/09/28 14:53:41;;;;;;;3.50;3.30;;;13.00;1.00;;;;;;6293160;28;20261;-52
2022/09/28 14:56:48;;;;;;;3.07;3.00;;;12.90;1.00;;;;;;6283400;28;20981;-53
2022/09/28 14:59:52;;;;;;;3.17;3.07;;;12.90;1.00;;;;;;6293296;28;20693;-53
2022/09/28 15:02:59;;;;;;;3.13;3.03;;;12.90;1.00;;;;;;6283763;28;20245;-53
2022/09/28 15:06:04;;;;;;;3.03;2.93;;;12.90;1.00;;;;;;6304030;28;20263;-52
2022/09/28 15:09:28;;;;;;;3.00;3.00;;;12.80;1.00;;;;;;6283672;28;20234;-54
2022/09/28 15:12:31;;;;;;;2.77;2.77;;;12.70;1.00;;;;;;6282888;28;20245;-54
2022/09/28 15:15:37;;;;;;;3.10;3.00;;;12.60;1.00;;;;;;6287944;28;20233;-54
2022/09/28 15:19:10;;;;;;;2.77;2.70;;;12.50;1.00;;;;;;6289090;28;20316;-54
2022/09/28 15:22:18;;;;;;;3.40;3.30;;;12.40;1.00;;;;;;6281632;28;20256;-52
2022/09/28 15:25:23;;;;;;;3.27;3.20;;;12.40;1.00;;;;;;6277590;28;20760;-53
2022/09/28 15:28:26;;;;;;;3.30;3.20;;;12.40;1.00;;;;;;6289640;28;20605;-55
2022/09/28 15:31:34;;;;;;;3.50;3.40;;;12.30;1.00;;;;;;6291105;28;20248;-52
2022/09/28 15:34:53;;;;;;;3.70;3.40;;;12.30;1.00;;;;;;6286383;28;20242;-54
2022/09/28 15:37:57;;;;;;;3.57;3.47;;;12.20;1.00;;;;;;6290011;28;20233;-53
2022/09/28 15:41:03;;;;;;;3.53;3.53;;;12.20;1.00;;;;;;6282580;28;20253;-57
2022/09/28 15:44:17;;;;;;;2.90;2.90;;;12.10;1.00;;;;;;6284049;28;20425;-53
2022/09/28 15:47:27;;;;;;;2.97;2.97;;;12.00;1.00;;;;;;6267777;28;20316;-54
2022/09/28 15:50:33;;;;;;;3.27;3.10;;;12.00;1.00;;;;;;6279722;28;20230;-54
2022/09/28 15:53:43;;;;;;;3.60;3.50;;;11.80;1.00;;;;;;6286576;28;20245;-54
2022/09/28 15:56:56;;;;;;;3.30;3.10;;;11.70;1.00;;;;;;6294014;28;20694;-54
2022/09/28 16:00:00;;;;;;;3.40;3.30;;;11.70;1.00;;;;;;6293500;28;20701;-53
2022/09/28 16:03:20;;;;;;;3.60;3.40;;;11.70;1.00;;;;;;6284872;28;20310;-54
2022/09/28 16:06:23;;;;;;;3.03;2.93;;;11.70;1.00;;;;;;6289215;28;20267;-54
2022/09/28 16:09:33;;;;;;;2.90;2.80;;;11.80;1.00;;;;;;6286174;28;20686;-55
2022/09/28 16:12:47;;;;;;;3.10;3.00;;;11.70;1.00;;;;;;6279935;28;20533;-53
2022/09/28 16:15:56;;;;;;;3.10;3.00;;;11.60;1.00;;;;;;6288065;28;20234;-53
2022/09/28 16:19:01;;;;;;;3.20;3.10;;;11.60;1.00;;;;;;6283685;28;20387;-53
2022/09/28 16:22:07;;;;;;;3.33;3.33;;;11.50;1.00;;;;;;6296514;28;20491;-53
2022/09/28 16:25:17;;;;;;;3.73;3.60;;;11.50;1.00;;;;;;6272168;28;20627;-53
2022/09/28 16:28:51;;;;;;;3.83;3.73;;;11.40;1.00;;;;;;6291442;28;21029;-55
2022/09/28 16:31:55;;;;;;;4.37;4.13;;;11.40;1.00;;;;;;6278450;28;20236;-55
2022/09/28 16:35:16;;;;;;;4.63;4.50;;;11.30;1.00;;;;;;6281775;28;20428;-62
2022/09/28 16:38:20;;;;;;;3.83;3.83;;;11.20;1.00;;;;;;6260702;28;20237;-55
2022/09/28 16:41:27;;;;;;;4.87;4.67;;;11.20;1.00;;;;;;6281971;28;20819;-53
2022/09/28 16:44:31;;;;;;;4.10;3.90;;;11.10;1.00;;;;;;6279402;28;20224;-53
2022/09/28 16:47:34;;;;;;;3.70;3.60;;;11.10;1.00;;;;;;6290297;28;20232;-54